sensor_id;sensor_type;location;lat;lon;timestamp;P1;durP1;ratioP1;P2;durP2;ratioP2
58978;SDS011;44763;50.464;30.612;2022-08-01T00:02:33;6.85;;;1.35;;
58978;SDS011;44763;50.464;30.612;2022-08-01T00:04:59;1.90;;;1.45;;
58978;SDS011;44763;50.464;30.612;2022-08-01T00:09:51;3.55;;;1.50;;
58978;SDS011;44763;50.464;30.612;2022-08-01T00:12:18;3.58;;;1.40;;
58978;SDS011;44763;50.464;30.612;2022-08-01T00:14:45;6.92;;;1.57;;
58978;SDS011;44763;50.464;30.612;2022-08-01T00:22:05;3.98;;;1.47;;
58978;SDS011;44763;50.464;30.612;2022-08-01T00:24:31;4.92;;;1.70;;
58978;SDS011;44763;50.464;30.612;2022-08-01T00:26:57;4.53;;;1.60;;
58978;SDS011;44763;50.464;30.612;2022-08-01T00:29:23;8.70;;;1.65;;
58978;SDS011;44763;50.464;30.612;2022-08-01T00:31:49;4.22;;;2.05;;
58978;SDS011;44763;50.464;30.612;2022-08-01T00:34:16;4.10;;;1.25;;
58978;SDS011;44763;50.464;30.612;2022-08-01T00:36:42;2.77;;;1.12;;
58978;SDS011;44763;50.464;30.612;2022-08-01T00:41:34;9.08;;;1.65;;
58978;SDS011;44763;50.464;30.612;2022-08-01T00:46:31;2.90;;;1.37;;
58978;SDS011;44763;50.464;30.612;2022-08-01T00:48:59;1.77;;;1.30;;
58978;SDS011;44763;50.464;30.612;2022-08-01T00:51:27;4.62;;;1.65;;
58978;SDS011;44763;50.464;30.612;2022-08-01T00:53:54;1.27;;;1.07;;
58978;SDS011;44763;50.464;30.612;2022-08-01T00:56:20;4.72;;;1.12;;
58978;SDS011;44763;50.464;30.612;2022-08-01T00:58:50;2.22;;;0.95;;
58978;SDS011;44763;50.464;30.612;2022-08-01T01:01:17;2.67;;;1.25;;
58978;SDS011;44763;50.464;30.612;2022-08-01T01:03:46;2.52;;;1.22;;
58978;SDS011;44763;50.464;30.612;2022-08-01T01:12:22;1.05;;;1.02;;
58978;SDS011;44763;50.464;30.612;2022-08-01T01:15:20;4.40;;;1.82;;
58978;SDS011;44763;50.464;30.612;2022-08-01T01:18:02;5.08;;;1.55;;
58978;SDS011;44763;50.464;30.612;2022-08-01T01:20:42;1.57;;;1.45;;
58978;SDS011;44763;50.464;30.612;2022-08-01T01:23:16;2.05;;;1.72;;
58978;SDS011;44763;50.464;30.612;2022-08-01T01:31:36;2.75;;;1.62;;
58978;SDS011;44763;50.464;30.612;2022-08-01T01:34:05;4.33;;;1.40;;
58978;SDS011;44763;50.464;30.612;2022-08-01T01:36:34;2.55;;;1.42;;
58978;SDS011;44763;50.464;30.612;2022-08-01T01:39:06;6.50;;;1.40;;
58978;SDS011;44763;50.464;30.612;2022-08-01T01:41:32;2.45;;;1.62;;
58978;SDS011;44763;50.464;30.612;2022-08-01T01:44:02;2.67;;;1.60;;
58978;SDS011;44763;50.464;30.612;2022-08-01T01:46:31;4.03;;;1.37;;
58978;SDS011;44763;50.464;30.612;2022-08-01T01:48:58;3.83;;;1.70;;
58978;SDS011;44763;50.464;30.612;2022-08-01T01:51:27;4.42;;;1.67;;
58978;SDS011;44763;50.464;30.612;2022-08-01T01:53:55;1.52;;;1.42;;
58978;SDS011;44763;50.464;30.612;2022-08-01T01:56:23;5.45;;;1.75;;
58978;SDS011;44763;50.464;30.612;2022-08-01T01:58:53;3.17;;;1.67;;
58978;SDS011;44763;50.464;30.612;2022-08-01T02:01:24;2.90;;;1.45;;
58978;SDS011;44763;50.464;30.612;2022-08-01T02:03:54;2.85;;;2.00;;
58978;SDS011;44763;50.464;30.612;2022-08-01T02:06:22;3.37;;;1.72;;
58978;SDS011;44763;50.464;30.612;2022-08-01T02:08:52;1.92;;;1.82;;
58978;SDS011;44763;50.464;30.612;2022-08-01T02:11:20;3.92;;;2.05;;
58978;SDS011;44763;50.464;30.612;2022-08-01T02:13:51;4.50;;;1.70;;
58978;SDS011;44763;50.464;30.612;2022-08-01T02:16:19;1.82;;;1.32;;
58978;SDS011;44763;50.464;30.612;2022-08-01T02:18:48;2.98;;;1.60;;
58978;SDS011;44763;50.464;30.612;2022-08-01T02:21:16;6.12;;;1.92;;
58978;SDS011;44763;50.464;30.612;2022-08-01T02:23:46;3.92;;;1.77;;
58978;SDS011;44763;50.464;30.612;2022-08-01T02:26:14;5.90;;;1.90;;
58978;SDS011;44763;50.464;30.612;2022-08-01T02:31:22;3.95;;;1.50;;
58978;SDS011;44763;50.464;30.612;2022-08-01T02:33:52;2.83;;;1.37;;
58978;SDS011;44763;50.464;30.612;2022-08-01T02:36:21;3.33;;;1.42;;
58978;SDS011;44763;50.464;30.612;2022-08-01T02:38:52;2.20;;;1.27;;
58978;SDS011;44763;50.464;30.612;2022-08-01T02:41:22;2.67;;;1.30;;
58978;SDS011;44763;50.464;30.612;2022-08-01T02:43:52;3.30;;;1.50;;
58978;SDS011;44763;50.464;30.612;2022-08-01T02:46:28;2.77;;;1.52;;
58978;SDS011;44763;50.464;30.612;2022-08-01T02:49:03;3.25;;;1.00;;
58978;SDS011;44763;50.464;30.612;2022-08-01T02:51:33;7.28;;;1.60;;
58978;SDS011;44763;50.464;30.612;2022-08-01T02:54:01;4.08;;;1.40;;
58978;SDS011;44763;50.464;30.612;2022-08-01T02:56:31;2.20;;;1.15;;
58978;SDS011;44763;50.464;30.612;2022-08-01T02:59:05;3.35;;;1.77;;
58978;SDS011;44763;50.464;30.612;2022-08-01T03:01:35;5.20;;;1.70;;
58978;SDS011;44763;50.464;30.612;2022-08-01T03:04:03;6.37;;;1.87;;
58978;SDS011;44763;50.464;30.612;2022-08-01T03:06:31;1.75;;;1.45;;
58978;SDS011;44763;50.464;30.612;2022-08-01T03:09:03;1.10;;;0.80;;
58978;SDS011;44763;50.464;30.612;2022-08-01T03:11:31;7.22;;;1.67;;
58978;SDS011;44763;50.464;30.612;2022-08-01T03:13:59;3.02;;;1.35;;
58978;SDS011;44763;50.464;30.612;2022-08-01T03:16:28;1.47;;;1.37;;
58978;SDS011;44763;50.464;30.612;2022-08-01T03:18:57;4.30;;;1.27;;
58978;SDS011;44763;50.464;30.612;2022-08-01T03:21:26;1.40;;;1.30;;
58978;SDS011;44763;50.464;30.612;2022-08-01T03:23:54;3.08;;;1.07;;
58978;SDS011;44763;50.464;30.612;2022-08-01T03:26:25;3.27;;;1.00;;
58978;SDS011;44763;50.464;30.612;2022-08-01T03:28:59;2.00;;;0.60;;
58978;SDS011;44763;50.464;30.612;2022-08-01T03:31:36;1.80;;;1.17;;
58978;SDS011;44763;50.464;30.612;2022-08-01T03:34:06;5.37;;;1.15;;
58978;SDS011;44763;50.464;30.612;2022-08-01T03:36:32;2.10;;;0.85;;
58978;SDS011;44763;50.464;30.612;2022-08-01T03:39:04;2.25;;;0.70;;
58978;SDS011;44763;50.464;30.612;2022-08-01T03:41:34;5.47;;;1.40;;
58978;SDS011;44763;50.464;30.612;2022-08-01T03:44:05;2.47;;;0.75;;
58978;SDS011;44763;50.464;30.612;2022-08-01T03:46:36;2.75;;;0.75;;
58978;SDS011;44763;50.464;30.612;2022-08-01T03:49:18;3.58;;;0.93;;
58978;SDS011;44763;50.464;30.612;2022-08-01T03:51:56;1.77;;;0.82;;
58978;SDS011;44763;50.464;30.612;2022-08-01T03:54:25;3.70;;;0.93;;
58978;SDS011;44763;50.464;30.612;2022-08-01T03:56:56;0.80;;;0.60;;
58978;SDS011;44763;50.464;30.612;2022-08-01T03:59:24;1.80;;;0.70;;
58978;SDS011;44763;50.464;30.612;2022-08-01T04:01:53;1.25;;;0.60;;
58978;SDS011;44763;50.464;30.612;2022-08-01T04:04:21;4.53;;;1.22;;
58978;SDS011;44763;50.464;30.612;2022-08-01T04:06:48;3.50;;;0.90;;
58978;SDS011;44763;50.464;30.612;2022-08-01T04:09:16;1.32;;;0.55;;
58978;SDS011;44763;50.464;30.612;2022-08-01T04:11:43;4.28;;;0.80;;
58978;SDS011;44763;50.464;30.612;2022-08-01T04:14:11;1.65;;;0.62;;
58978;SDS011;44763;50.464;30.612;2022-08-01T04:16:37;1.98;;;0.85;;
58978;SDS011;44763;50.464;30.612;2022-08-01T04:19:04;1.07;;;0.68;;
58978;SDS011;44763;50.464;30.612;2022-08-01T04:21:33;6.35;;;0.95;;
58978;SDS011;44763;50.464;30.612;2022-08-01T04:24:09;1.50;;;0.65;;
58978;SDS011;44763;50.464;30.612;2022-08-01T04:26:41;2.25;;;0.98;;
58978;SDS011;44763;50.464;30.612;2022-08-01T04:29:11;3.75;;;0.50;;
58978;SDS011;44763;50.464;30.612;2022-08-01T04:31:41;8.58;;;1.10;;
58978;SDS011;44763;50.464;30.612;2022-08-01T04:34:11;2.20;;;0.47;;
58978;SDS011;44763;50.464;30.612;2022-08-01T04:36:42;1.90;;;0.75;;
58978;SDS011;44763;50.464;30.612;2022-08-01T04:39:11;2.30;;;0.57;;
58978;SDS011;44763;50.464;30.612;2022-08-01T04:41:39;4.75;;;0.98;;
58978;SDS011;44763;50.464;30.612;2022-08-01T04:44:06;3.90;;;0.40;;
58978;SDS011;44763;50.464;30.612;2022-08-01T04:46:33;4.12;;;1.07;;
58978;SDS011;44763;50.464;30.612;2022-08-01T04:49:02;5.00;;;0.80;;
58978;SDS011;44763;50.464;30.612;2022-08-01T04:51:32;4.65;;;0.50;;
58978;SDS011;44763;50.464;30.612;2022-08-01T04:54:56;2.83;;;0.62;;
58978;SDS011;44763;50.464;30.612;2022-08-01T04:57:22;2.08;;;0.57;;
58978;SDS011;44763;50.464;30.612;2022-08-01T04:59:49;0.88;;;0.53;;
58978;SDS011;44763;50.464;30.612;2022-08-01T05:02:17;3.72;;;0.57;;
58978;SDS011;44763;50.464;30.612;2022-08-01T05:04:46;4.15;;;0.93;;
58978;SDS011;44763;50.464;30.612;2022-08-01T05:07:13;2.47;;;0.40;;
58978;SDS011;44763;50.464;30.612;2022-08-01T05:09:41;4.35;;;0.53;;
58978;SDS011;44763;50.464;30.612;2022-08-01T05:12:08;0.82;;;0.55;;
58978;SDS011;44763;50.464;30.612;2022-08-01T05:14:36;1.60;;;0.75;;
58978;SDS011;44763;50.464;30.612;2022-08-01T05:17:04;5.15;;;0.75;;
58978;SDS011;44763;50.464;30.612;2022-08-01T05:19:33;7.40;;;0.85;;
58978;SDS011;44763;50.464;30.612;2022-08-01T05:22:02;1.12;;;0.80;;
58978;SDS011;44763;50.464;30.612;2022-08-01T05:24:32;2.10;;;0.65;;
58978;SDS011;44763;50.464;30.612;2022-08-01T05:26:59;2.60;;;0.40;;
58978;SDS011;44763;50.464;30.612;2022-08-01T05:29:27;1.32;;;0.50;;
58978;SDS011;44763;50.464;30.612;2022-08-01T05:31:53;0.65;;;0.45;;
58978;SDS011;44763;50.464;30.612;2022-08-01T05:34:20;1.57;;;0.75;;
58978;SDS011;44763;50.464;30.612;2022-08-01T05:36:46;1.17;;;0.45;;
58978;SDS011;44763;50.464;30.612;2022-08-01T05:39:13;3.85;;;0.60;;
58978;SDS011;44763;50.464;30.612;2022-08-01T05:41:40;3.22;;;0.80;;
58978;SDS011;44763;50.464;30.612;2022-08-01T05:44:07;1.90;;;0.50;;
58978;SDS011;44763;50.464;30.612;2022-08-01T05:46:34;3.60;;;0.85;;
58978;SDS011;44763;50.464;30.612;2022-08-01T05:49:02;2.85;;;0.68;;
58978;SDS011;44763;50.464;30.612;2022-08-01T05:51:30;1.25;;;0.57;;
58978;SDS011;44763;50.464;30.612;2022-08-01T05:53:57;4.35;;;0.55;;
58978;SDS011;44763;50.464;30.612;2022-08-01T05:56:24;1.02;;;0.50;;
58978;SDS011;44763;50.464;30.612;2022-08-01T05:58:51;6.90;;;0.30;;
58978;SDS011;44763;50.464;30.612;2022-08-01T06:01:18;4.03;;;0.65;;
58978;SDS011;44763;50.464;30.612;2022-08-01T06:03:45;2.70;;;0.33;;
58978;SDS011;44763;50.464;30.612;2022-08-01T06:06:11;3.10;;;0.40;;
58978;SDS011;44763;50.464;30.612;2022-08-01T06:08:39;8.28;;;0.78;;
58978;SDS011;44763;50.464;30.612;2022-08-01T06:11:06;2.42;;;0.45;;
58978;SDS011;44763;50.464;30.612;2022-08-01T06:13:34;2.50;;;0.68;;
58978;SDS011;44763;50.464;30.612;2022-08-01T06:16:00;5.35;;;0.68;;
58978;SDS011;44763;50.464;30.612;2022-08-01T06:18:26;1.22;;;0.37;;
58978;SDS011;44763;50.464;30.612;2022-08-01T06:20:52;0.72;;;0.20;;
58978;SDS011;44763;50.464;30.612;2022-08-01T06:23:19;6.67;;;0.42;;
58978;SDS011;44763;50.464;30.612;2022-08-01T06:25:47;1.57;;;0.47;;
58978;SDS011;44763;50.464;30.612;2022-08-01T06:28:20;2.55;;;0.30;;
58978;SDS011;44763;50.464;30.612;2022-08-01T06:30:47;1.75;;;0.30;;
58978;SDS011;44763;50.464;30.612;2022-08-01T06:33:14;3.40;;;0.50;;
58978;SDS011;44763;50.464;30.612;2022-08-01T06:35:40;3.27;;;0.50;;
58978;SDS011;44763;50.464;30.612;2022-08-01T06:38:06;1.30;;;0.42;;
58978;SDS011;44763;50.464;30.612;2022-08-01T06:40:32;5.87;;;0.70;;
58978;SDS011;44763;50.464;30.612;2022-08-01T06:42:58;2.77;;;0.40;;
58978;SDS011;44763;50.464;30.612;2022-08-01T06:45:25;2.80;;;0.40;;
58978;SDS011;44763;50.464;30.612;2022-08-01T06:47:52;2.27;;;0.40;;
58978;SDS011;44763;50.464;30.612;2022-08-01T06:50:18;2.50;;;0.55;;
58978;SDS011;44763;50.464;30.612;2022-08-01T06:52:45;1.12;;;0.60;;
58978;SDS011;44763;50.464;30.612;2022-08-01T06:55:10;1.37;;;0.50;;
58978;SDS011;44763;50.464;30.612;2022-08-01T06:57:39;5.28;;;0.37;;
58978;SDS011;44763;50.464;30.612;2022-08-01T07:00:15;2.77;;;0.40;;
58978;SDS011;44763;50.464;30.612;2022-08-01T07:02:45;5.15;;;0.65;;
58978;SDS011;44763;50.464;30.612;2022-08-01T07:05:11;3.55;;;0.60;;
58978;SDS011;44763;50.464;30.612;2022-08-01T07:07:39;2.15;;;0.30;;
58978;SDS011;44763;50.464;30.612;2022-08-01T07:10:06;1.12;;;0.47;;
58978;SDS011;44763;50.464;30.612;2022-08-01T07:12:34;1.20;;;0.50;;
58978;SDS011;44763;50.464;30.612;2022-08-01T07:15:04;1.87;;;0.30;;
58978;SDS011;44763;50.464;30.612;2022-08-01T07:17:32;2.10;;;0.50;;
58978;SDS011;44763;50.464;30.612;2022-08-01T07:19:58;2.98;;;0.55;;
58978;SDS011;44763;50.464;30.612;2022-08-01T07:22:24;1.70;;;0.42;;
58978;SDS011;44763;50.464;30.612;2022-08-01T07:24:50;1.87;;;0.20;;
58978;SDS011;44763;50.464;30.612;2022-08-01T07:27:16;4.20;;;0.20;;
58978;SDS011;44763;50.464;30.612;2022-08-01T07:29:42;2.45;;;0.30;;
58978;SDS011;44763;50.464;30.612;2022-08-01T07:32:08;1.45;;;0.20;;
58978;SDS011;44763;50.464;30.612;2022-08-01T07:34:35;2.87;;;0.33;;
58978;SDS011;44763;50.464;30.612;2022-08-01T07:37:01;2.55;;;0.28;;
58978;SDS011;44763;50.464;30.612;2022-08-01T07:39:27;0.88;;;0.42;;
58978;SDS011;44763;50.464;30.612;2022-08-01T07:41:53;2.17;;;0.30;;
58978;SDS011;44763;50.464;30.612;2022-08-01T07:44:19;3.45;;;0.42;;
58978;SDS011;44763;50.464;30.612;2022-08-01T07:46:47;3.52;;;0.35;;
58978;SDS011;44763;50.464;30.612;2022-08-01T07:49:13;3.80;;;0.40;;
58978;SDS011;44763;50.464;30.612;2022-08-01T07:51:40;5.60;;;0.60;;
58978;SDS011;44763;50.464;30.612;2022-08-01T07:54:06;4.40;;;0.60;;
58978;SDS011;44763;50.464;30.612;2022-08-01T07:56:33;1.50;;;0.53;;
58978;SDS011;44763;50.464;30.612;2022-08-01T07:59:00;3.35;;;0.50;;
58978;SDS011;44763;50.464;30.612;2022-08-01T08:01:27;2.67;;;0.53;;
58978;SDS011;44763;50.464;30.612;2022-08-01T08:03:53;3.72;;;0.55;;
58978;SDS011;44763;50.464;30.612;2022-08-01T08:06:19;1.37;;;0.42;;
58978;SDS011;44763;50.464;30.612;2022-08-01T08:08:45;2.22;;;0.55;;
58978;SDS011;44763;50.464;30.612;2022-08-01T08:11:12;0.55;;;0.55;;
58978;SDS011;44763;50.464;30.612;2022-08-01T08:13:38;4.47;;;0.62;;
58978;SDS011;44763;50.464;30.612;2022-08-01T08:16:04;1.62;;;0.90;;
58978;SDS011;44763;50.464;30.612;2022-08-01T08:18:31;1.20;;;0.47;;
58978;SDS011;44763;50.464;30.612;2022-08-01T08:21:00;3.15;;;0.42;;
58978;SDS011;44763;50.464;30.612;2022-08-01T08:23:26;2.10;;;0.60;;
58978;SDS011;44763;50.464;30.612;2022-08-01T08:26:11;2.65;;;0.62;;
58978;SDS011;44763;50.464;30.612;2022-08-01T08:28:37;4.47;;;0.60;;
58978;SDS011;44763;50.464;30.612;2022-08-01T08:31:04;3.22;;;0.62;;
58978;SDS011;44763;50.464;30.612;2022-08-01T08:33:30;1.30;;;0.95;;
58978;SDS011;44763;50.464;30.612;2022-08-01T08:35:56;1.75;;;0.37;;
58978;SDS011;44763;50.464;30.612;2022-08-01T08:38:22;2.40;;;0.70;;
58978;SDS011;44763;50.464;30.612;2022-08-01T08:40:53;7.60;;;0.68;;
58978;SDS011;44763;50.464;30.612;2022-08-01T08:43:19;2.77;;;0.70;;
58978;SDS011;44763;50.464;30.612;2022-08-01T08:45:47;2.37;;;0.47;;
58978;SDS011;44763;50.464;30.612;2022-08-01T08:48:14;0.95;;;0.62;;
58978;SDS011;44763;50.464;30.612;2022-08-01T08:50:41;4.67;;;0.78;;
58978;SDS011;44763;50.464;30.612;2022-08-01T08:53:10;2.12;;;0.70;;
58978;SDS011;44763;50.464;30.612;2022-08-01T08:55:40;2.37;;;0.90;;
58978;SDS011;44763;50.464;30.612;2022-08-01T08:58:12;8.18;;;0.88;;
58978;SDS011;44763;50.464;30.612;2022-08-01T09:00:40;1.70;;;0.57;;
58978;SDS011;44763;50.464;30.612;2022-08-01T09:03:08;2.83;;;1.10;;
58978;SDS011;44763;50.464;30.612;2022-08-01T09:05:35;5.20;;;0.90;;
58978;SDS011;44763;50.464;30.612;2022-08-01T09:08:05;3.58;;;1.17;;
58978;SDS011;44763;50.464;30.612;2022-08-01T09:10:33;6.37;;;1.20;;
58978;SDS011;44763;50.464;30.612;2022-08-01T09:13:07;2.33;;;0.90;;
58978;SDS011;44763;50.464;30.612;2022-08-01T09:15:38;2.50;;;0.95;;
58978;SDS011;44763;50.464;30.612;2022-08-01T09:18:24;2.50;;;0.60;;
58978;SDS011;44763;50.464;30.612;2022-08-01T09:21:11;1.95;;;1.65;;
58978;SDS011;44763;50.464;30.612;2022-08-01T09:23:50;3.65;;;1.25;;
58978;SDS011;44763;50.464;30.612;2022-08-01T09:26:30;2.35;;;1.67;;
58978;SDS011;44763;50.464;30.612;2022-08-01T09:29:03;9.63;;;1.67;;
58978;SDS011;44763;50.464;30.612;2022-08-01T09:31:41;3.62;;;1.30;;
58978;SDS011;44763;50.464;30.612;2022-08-01T09:34:10;2.42;;;1.37;;
58978;SDS011;44763;50.464;30.612;2022-08-01T09:36:59;2.02;;;1.47;;
58978;SDS011;44763;50.464;30.612;2022-08-01T09:39:13;0.82;;;0.75;;
58978;SDS011;44763;50.464;30.612;2022-08-01T09:41:41;2.10;;;0.98;;
58978;SDS011;44763;50.464;30.612;2022-08-01T09:44:07;4.83;;;1.50;;
58978;SDS011;44763;50.464;30.612;2022-08-01T09:46:34;1.45;;;1.40;;
58978;SDS011;44763;50.464;30.612;2022-08-01T09:49:02;0.95;;;0.80;;
58978;SDS011;44763;50.464;30.612;2022-08-01T09:51:38;1.55;;;0.88;;
58978;SDS011;44763;50.464;30.612;2022-08-01T09:54:05;5.00;;;0.90;;
58978;SDS011;44763;50.464;30.612;2022-08-01T09:56:37;1.12;;;1.10;;
58978;SDS011;44763;50.464;30.612;2022-08-01T09:59:08;1.62;;;1.30;;
58978;SDS011;44763;50.464;30.612;2022-08-01T10:01:46;4.08;;;1.07;;
58978;SDS011;44763;50.464;30.612;2022-08-01T10:04:13;3.47;;;1.50;;
58978;SDS011;44763;50.464;30.612;2022-08-01T10:06:47;3.12;;;0.80;;
58978;SDS011;44763;50.464;30.612;2022-08-01T10:09:26;1.52;;;1.52;;
58978;SDS011;44763;50.464;30.612;2022-08-01T10:11:57;3.42;;;1.60;;
58978;SDS011;44763;50.464;30.612;2022-08-01T10:14:26;4.58;;;1.10;;
58978;SDS011;44763;50.464;30.612;2022-08-01T10:16:54;4.15;;;1.20;;
58978;SDS011;44763;50.464;30.612;2022-08-01T10:19:23;5.40;;;1.27;;
58978;SDS011;44763;50.464;30.612;2022-08-01T10:21:52;2.95;;;1.52;;
58978;SDS011;44763;50.464;30.612;2022-08-01T10:24:20;2.58;;;1.20;;
58978;SDS011;44763;50.464;30.612;2022-08-01T10:26:49;1.25;;;1.20;;
58978;SDS011;44763;50.464;30.612;2022-08-01T10:29:25;7.70;;;1.70;;
58978;SDS011;44763;50.464;30.612;2022-08-01T10:31:53;4.30;;;1.15;;
58978;SDS011;44763;50.464;30.612;2022-08-01T10:34:20;4.62;;;1.32;;
58978;SDS011;44763;50.464;30.612;2022-08-01T10:36:47;1.92;;;1.00;;
58978;SDS011;44763;50.464;30.612;2022-08-01T10:39:13;1.55;;;1.45;;
58978;SDS011;44763;50.464;30.612;2022-08-01T10:41:40;1.85;;;1.22;;
58978;SDS011;44763;50.464;30.612;2022-08-01T10:44:07;5.12;;;1.45;;
58978;SDS011;44763;50.464;30.612;2022-08-01T10:46:39;1.25;;;1.07;;
58978;SDS011;44763;50.464;30.612;2022-08-01T10:49:13;2.30;;;1.40;;
58978;SDS011;44763;50.464;30.612;2022-08-01T10:51:41;0.70;;;0.70;;
58978;SDS011;44763;50.464;30.612;2022-08-01T10:54:10;2.95;;;1.32;;
58978;SDS011;44763;50.464;30.612;2022-08-01T10:56:39;2.30;;;1.20;;
58978;SDS011;44763;50.464;30.612;2022-08-01T10:59:24;1.30;;;1.20;;
58978;SDS011;44763;50.464;30.612;2022-08-01T11:04:41;2.62;;;1.52;;
58978;SDS011;44763;50.464;30.612;2022-08-01T11:07:44;1.17;;;1.12;;
58978;SDS011;44763;50.464;30.612;2022-08-01T11:10:24;3.98;;;1.05;;
58978;SDS011;44763;50.464;30.612;2022-08-01T11:12:56;1.47;;;1.22;;
58978;SDS011;44763;50.464;30.612;2022-08-01T11:15:24;12.10;;;1.55;;
58978;SDS011;44763;50.464;30.612;2022-08-01T11:17:52;1.42;;;1.32;;
58978;SDS011;44763;50.464;30.612;2022-08-01T11:20:23;2.15;;;1.05;;
58978;SDS011;44763;50.464;30.612;2022-08-01T11:30:46;1.67;;;1.37;;
58978;SDS011;44763;50.464;30.612;2022-08-01T11:33:16;1.85;;;1.72;;
58978;SDS011;44763;50.464;30.612;2022-08-01T11:36:16;4.55;;;1.87;;
58978;SDS011;44763;50.464;30.612;2022-08-01T11:38:47;8.88;;;2.17;;
58978;SDS011;44763;50.464;30.612;2022-08-01T11:41:34;3.45;;;1.65;;
58978;SDS011;44763;50.464;30.612;2022-08-01T11:44:05;10.18;;;2.12;;
58978;SDS011;44763;50.464;30.612;2022-08-01T11:52:13;4.30;;;2.33;;
58978;SDS011;44763;50.464;30.612;2022-08-01T11:55:07;7.30;;;2.02;;
58978;SDS011;44763;50.464;30.612;2022-08-01T11:57:34;1.70;;;1.60;;
58978;SDS011;44763;50.464;30.612;2022-08-01T12:00:10;2.20;;;2.10;;
58978;SDS011;44763;50.464;30.612;2022-08-01T12:02:40;3.55;;;1.60;;
58978;SDS011;44763;50.464;30.612;2022-08-01T12:05:11;4.55;;;2.75;;
58978;SDS011;44763;50.464;30.612;2022-08-01T12:07:38;4.87;;;1.67;;
58978;SDS011;44763;50.464;30.612;2022-08-01T12:10:13;2.75;;;2.55;;
58978;SDS011;44763;50.464;30.612;2022-08-01T12:12:43;2.25;;;2.05;;
58978;SDS011;44763;50.464;30.612;2022-08-01T12:15:23;1.70;;;1.57;;
58978;SDS011;44763;50.464;30.612;2022-08-01T12:17:53;4.45;;;1.92;;
58978;SDS011;44763;50.464;30.612;2022-08-01T12:20:24;5.47;;;2.22;;
58978;SDS011;44763;50.464;30.612;2022-08-01T12:22:59;1.65;;;1.55;;
58978;SDS011;44763;50.464;30.612;2022-08-01T12:25:39;4.78;;;2.27;;
58978;SDS011;44763;50.464;30.612;2022-08-01T12:28:07;2.80;;;2.02;;
58978;SDS011;44763;50.464;30.612;2022-08-01T12:30:35;2.70;;;1.60;;
58978;SDS011;44763;50.464;30.612;2022-08-01T12:33:05;5.90;;;2.60;;
58978;SDS011;44763;50.464;30.612;2022-08-01T12:35:35;2.80;;;2.08;;
58978;SDS011;44763;50.464;30.612;2022-08-01T12:38:07;2.45;;;2.22;;
58978;SDS011;44763;50.464;30.612;2022-08-01T12:40:43;2.95;;;2.25;;
58978;SDS011;44763;50.464;30.612;2022-08-01T12:43:20;3.47;;;2.20;;
58978;SDS011;44763;50.464;30.612;2022-08-01T12:45:50;3.22;;;2.15;;
58978;SDS011;44763;50.464;30.612;2022-08-01T12:48:18;3.95;;;1.75;;
58978;SDS011;44763;50.464;30.612;2022-08-01T12:50:46;2.10;;;2.00;;
58978;SDS011;44763;50.464;30.612;2022-08-01T12:53:14;2.15;;;1.70;;
58978;SDS011;44763;50.464;30.612;2022-08-01T12:55:48;4.22;;;2.17;;
58978;SDS011;44763;50.464;30.612;2022-08-01T12:58:19;4.78;;;2.42;;
58978;SDS011;44763;50.464;30.612;2022-08-01T13:00:50;1.82;;;1.50;;
58978;SDS011;44763;50.464;30.612;2022-08-01T13:03:20;1.82;;;1.72;;
58978;SDS011;44763;50.464;30.612;2022-08-01T13:05:48;3.47;;;1.82;;
58978;SDS011;44763;50.464;30.612;2022-08-01T13:11:00;1.98;;;1.67;;
58978;SDS011;44763;50.464;30.612;2022-08-01T13:13:37;3.65;;;1.87;;
58978;SDS011;44763;50.464;30.612;2022-08-01T13:16:10;3.22;;;1.80;;
58978;SDS011;44763;50.464;30.612;2022-08-01T13:18:36;2.35;;;1.85;;
58978;SDS011;44763;50.464;30.612;2022-08-01T13:21:11;2.10;;;1.40;;
58978;SDS011;44763;50.464;30.612;2022-08-01T13:23:41;2.90;;;1.55;;
58978;SDS011;44763;50.464;30.612;2022-08-01T13:29:15;3.45;;;1.40;;
58978;SDS011;44763;50.464;30.612;2022-08-01T13:31:45;3.15;;;1.22;;
58978;SDS011;44763;50.464;30.612;2022-08-01T13:34:12;5.00;;;1.35;;
58978;SDS011;44763;50.464;30.612;2022-08-01T13:36:39;3.27;;;1.00;;
58978;SDS011;44763;50.464;30.612;2022-08-01T13:39:06;3.70;;;1.07;;
58978;SDS011;44763;50.464;30.612;2022-08-01T13:41:51;2.70;;;1.32;;
58978;SDS011;44763;50.464;30.612;2022-08-01T13:44:18;2.95;;;1.00;;
58978;SDS011;44763;50.464;30.612;2022-08-01T13:46:44;6.42;;;1.77;;
58978;SDS011;44763;50.464;30.612;2022-08-01T13:49:13;3.05;;;1.65;;
58978;SDS011;44763;50.464;30.612;2022-08-01T13:51:39;4.22;;;1.20;;
58978;SDS011;44763;50.464;30.612;2022-08-01T13:54:05;1.35;;;1.25;;
58978;SDS011;44763;50.464;30.612;2022-08-01T13:56:34;2.98;;;1.25;;
58978;SDS011;44763;50.464;30.612;2022-08-01T13:59:00;4.95;;;1.57;;
58978;SDS011;44763;50.464;30.612;2022-08-01T14:01:26;1.30;;;1.20;;
58978;SDS011;44763;50.464;30.612;2022-08-01T14:03:52;5.50;;;1.10;;
58978;SDS011;44763;50.464;30.612;2022-08-01T14:06:19;2.45;;;1.00;;
58978;SDS011;44763;50.464;30.612;2022-08-01T14:08:47;1.02;;;1.02;;
58978;SDS011;44763;50.464;30.612;2022-08-01T14:11:16;2.92;;;1.17;;
58978;SDS011;44763;50.464;30.612;2022-08-01T14:13:43;2.58;;;0.80;;
58978;SDS011;44763;50.464;30.612;2022-08-01T14:16:09;1.37;;;1.17;;
58978;SDS011;44763;50.464;30.612;2022-08-01T14:18:36;2.12;;;1.55;;
58978;SDS011;44763;50.464;30.612;2022-08-01T14:21:02;1.25;;;0.85;;
58978;SDS011;44763;50.464;30.612;2022-08-01T14:23:28;2.37;;;0.90;;
58978;SDS011;44763;50.464;30.612;2022-08-01T14:25:54;2.58;;;1.25;;
58978;SDS011;44763;50.464;30.612;2022-08-01T14:28:20;1.10;;;0.90;;
58978;SDS011;44763;50.464;30.612;2022-08-01T14:30:47;4.53;;;1.20;;
58978;SDS011;44763;50.464;30.612;2022-08-01T14:33:13;2.17;;;1.07;;
58978;SDS011;44763;50.464;30.612;2022-08-01T14:35:40;22.07;;;1.55;;
58978;SDS011;44763;50.464;30.612;2022-08-01T14:38:07;2.65;;;1.57;;
58978;SDS011;44763;50.464;30.612;2022-08-01T14:40:34;4.58;;;1.42;;
58978;SDS011;44763;50.464;30.612;2022-08-01T14:43:01;3.90;;;1.22;;
58978;SDS011;44763;50.464;30.612;2022-08-01T14:45:27;2.58;;;1.60;;
58978;SDS011;44763;50.464;30.612;2022-08-01T14:47:53;3.65;;;2.25;;
58978;SDS011;44763;50.464;30.612;2022-08-01T14:50:19;6.90;;;1.82;;
58978;SDS011;44763;50.464;30.612;2022-08-01T14:52:46;2.55;;;1.27;;
58978;SDS011;44763;50.464;30.612;2022-08-01T14:55:12;4.28;;;1.62;;
58978;SDS011;44763;50.464;30.612;2022-08-01T14:57:39;7.80;;;1.47;;
58978;SDS011;44763;50.464;30.612;2022-08-01T15:00:07;7.12;;;2.12;;
58978;SDS011;44763;50.464;30.612;2022-08-01T15:02:42;1.80;;;1.80;;
58978;SDS011;44763;50.464;30.612;2022-08-01T15:05:08;7.45;;;2.02;;
58978;SDS011;44763;50.464;30.612;2022-08-01T15:07:37;5.45;;;2.02;;
58978;SDS011;44763;50.464;30.612;2022-08-01T15:10:04;5.70;;;2.10;;
58978;SDS011;44763;50.464;30.612;2022-08-01T15:12:31;4.10;;;1.75;;
58978;SDS011;44763;50.464;30.612;2022-08-01T15:14:59;2.98;;;1.35;;
58978;SDS011;44763;50.464;30.612;2022-08-01T15:17:27;2.47;;;1.80;;
58978;SDS011;44763;50.464;30.612;2022-08-01T15:19:56;5.17;;;1.65;;
58978;SDS011;44763;50.464;30.612;2022-08-01T15:22:26;2.12;;;1.92;;
58978;SDS011;44763;50.464;30.612;2022-08-01T15:24:54;2.85;;;2.00;;
58978;SDS011;44763;50.464;30.612;2022-08-01T15:27:24;3.47;;;2.10;;
58978;SDS011;44763;50.464;30.612;2022-08-01T15:29:52;3.02;;;2.27;;
58978;SDS011;44763;50.464;30.612;2022-08-01T15:32:19;4.47;;;1.90;;
58978;SDS011;44763;50.464;30.612;2022-08-01T15:34:46;3.10;;;1.90;;
58978;SDS011;44763;50.464;30.612;2022-08-01T15:37:12;2.92;;;2.33;;